createdAt,value
2023-01-17T00:00:54.030Z,9.27
2023-01-17T00:03:22.548Z,8.65
2023-01-17T00:06:09.689Z,6.60
2023-01-17T00:08:56.570Z,6.65
2023-01-17T00:11:25.719Z,8.25
2023-01-17T00:13:54.254Z,9.18
2023-01-17T00:16:22.923Z,8.60
2023-01-17T00:19:11.985Z,7.30
2023-01-17T00:21:58.920Z,7.97
2023-01-17T00:24:45.891Z,7.53
2023-01-17T00:27:14.531Z,5.95
2023-01-17T00:29:42.897Z,6.30
2023-01-17T00:32:11.411Z,6.05
2023-01-17T00:34:40.130Z,6.40
2023-01-17T00:37:08.759Z,5.78
2023-01-17T00:39:37.347Z,6.47
2023-01-17T00:42:05.808Z,6.45
2023-01-17T00:44:53.038Z,6.93
2023-01-17T00:47:40.652Z,8.05
2023-01-17T00:50:28.159Z,8.77
2023-01-17T00:53:14.929Z,9.82
2023-01-17T00:56:01.815Z,10.90
2023-01-17T00:58:48.715Z,8.70
2023-01-17T01:01:36.206Z,7.95
2023-01-17T01:04:23.589Z,8.80
2023-01-17T01:07:10.743Z,8.52
2023-01-17T01:09:57.759Z,7.85
2023-01-17T01:12:45.352Z,7.45
2023-01-17T01:15:32.227Z,6.97
2023-01-17T01:18:27.916Z,7.82
2023-01-17T01:21:14.714Z,7.15
2023-01-17T01:24:04.587Z,6.80
2023-01-17T01:26:51.586Z,6.38
2023-01-17T01:29:38.567Z,7.05
2023-01-17T01:32:25.226Z,6.82
2023-01-17T01:34:53.870Z,6.97
2023-01-17T01:37:22.712Z,7.22
2023-01-17T01:39:51.363Z,7.68
2023-01-17T01:42:19.933Z,7.20
2023-01-17T01:44:54.209Z,7.38
2023-01-17T01:47:37.669Z,7.05
2023-01-17T01:50:09.810Z,5.40
2023-01-17T01:52:43.369Z,6.53
2023-01-17T01:55:24.904Z,6.75
2023-01-17T01:57:59.791Z,7.00
2023-01-17T02:00:36.767Z,6.00
2023-01-17T02:03:16.129Z,6.20
2023-01-17T02:05:45.344Z,5.90
2023-01-17T02:08:17.914Z,6.82
2023-01-17T02:10:47.209Z,8.20
2023-01-17T02:13:19.872Z,7.18
2023-01-17T02:16:16.802Z,6.45
2023-01-17T02:19:18.739Z,6.50
2023-01-17T02:22:16.715Z,6.88
2023-01-17T02:25:24.429Z,7.13
2023-01-17T02:28:33.795Z,9.45
2023-01-17T02:31:15.445Z,8.90
2023-01-17T02:34:07.849Z,10.93
2023-01-17T02:36:43.277Z,14.38
2023-01-17T02:39:41.248Z,15.07
2023-01-17T02:42:15.547Z,15.00
2023-01-17T02:44:45.634Z,16.58
2023-01-17T02:47:31.828Z,18.95
2023-01-17T02:50:20.921Z,17.65
2023-01-17T02:53:10.417Z,18.58
2023-01-17T02:56:09.220Z,19.67
2023-01-17T02:58:51.815Z,18.63
2023-01-17T03:01:43.762Z,20.33
2023-01-17T03:04:50.465Z,19.20
2023-01-17T03:07:25.232Z,18.63
2023-01-17T03:10:00.275Z,19.05
2023-01-17T03:12:35.385Z,19.85
2023-01-17T03:15:04.459Z,19.48
2023-01-17T03:17:34.240Z,20.25
2023-01-17T03:20:02.882Z,18.83
2023-01-17T03:22:31.605Z,18.95
2023-01-17T03:25:00.297Z,19.50
2023-01-17T03:27:28.999Z,19.40
2023-01-17T03:29:57.906Z,19.67
2023-01-17T03:32:26.636Z,18.58
2023-01-17T03:34:55.395Z,17.85
2023-01-17T03:37:24.061Z,19.48
2023-01-17T03:39:52.774Z,19.95
2023-01-17T03:42:21.218Z,19.73
2023-01-17T03:44:50.103Z,18.88
2023-01-17T03:47:18.743Z,18.05
2023-01-17T03:49:47.448Z,21.33
2023-01-17T03:52:15.966Z,19.45
2023-01-17T03:54:44.799Z,21.67
2023-01-17T03:57:13.499Z,20.10
2023-01-17T03:59:42.168Z,21.65
2023-01-17T04:02:14.241Z,21.02
2023-01-17T04:04:42.767Z,21.55
2023-01-17T04:07:11.154Z,22.63
2023-01-17T04:09:39.816Z,20.30
2023-01-17T04:12:08.616Z,17.77
2023-01-17T04:14:37.402Z,18.45
2023-01-17T04:17:06.076Z,17.85
2023-01-17T04:19:37.318Z,18.48
2023-01-17T04:22:05.855Z,20.67
2023-01-17T04:24:34.625Z,21.63
2023-01-17T04:27:04.688Z,21.77
2023-01-17T04:29:33.614Z,23.95
2023-01-17T04:32:02.316Z,31.33
2023-01-17T04:34:30.957Z,48.83
2023-01-17T04:36:59.538Z,47.83
2023-01-17T04:39:28.206Z,46.97
2023-01-17T04:41:56.999Z,57.30
2023-01-17T04:44:25.918Z,21.70
2023-01-17T04:46:54.641Z,25.70
2023-01-17T04:49:23.474Z,31.50
2023-01-17T04:51:52.359Z,52.97
2023-01-17T04:54:21.234Z,77.35
2023-01-17T04:56:49.956Z,29.33
2023-01-17T04:59:21.399Z,32.72
2023-01-17T05:01:50.366Z,23.60
2023-01-17T05:04:18.996Z,26.00
2023-01-17T05:06:47.684Z,24.05
2023-01-17T05:09:16.476Z,25.77
2023-01-17T05:11:45.346Z,21.08
2023-01-17T05:14:14.005Z,19.98
2023-01-17T05:16:43.016Z,17.83
2023-01-17T05:19:11.594Z,17.45
2023-01-17T05:21:40.288Z,15.38
2023-01-17T05:24:08.825Z,16.30
2023-01-17T05:26:37.617Z,14.48
2023-01-17T05:29:06.186Z,14.00
2023-01-17T05:31:34.924Z,12.32
2023-01-17T05:34:04.165Z,14.15
2023-01-17T05:36:32.985Z,12.07
2023-01-17T05:39:01.626Z,13.10
2023-01-17T05:41:30.209Z,13.57
2023-01-17T05:43:59.017Z,13.30
2023-01-17T05:46:27.697Z,16.20
2023-01-17T05:48:56.525Z,14.15
2023-01-17T05:51:25.217Z,12.52
2023-01-17T05:53:53.762Z,14.43
2023-01-17T05:56:22.522Z,12.48
2023-01-17T05:58:51.177Z,11.05
2023-01-17T06:01:20.325Z,10.50
2023-01-17T06:03:49.037Z,8.98
2023-01-17T06:06:17.596Z,8.45
2023-01-17T06:08:46.317Z,8.32
2023-01-17T06:11:15.060Z,7.93
2023-01-17T06:13:43.697Z,7.68
2023-01-17T06:16:12.290Z,7.80
2023-01-17T06:18:41.041Z,8.90
2023-01-17T06:21:09.556Z,8.43
2023-01-17T06:23:40.717Z,7.93
2023-01-17T06:26:10.657Z,7.78
2023-01-17T06:28:39.418Z,7.72
2023-01-17T06:31:09.857Z,8.15
2023-01-17T06:33:38.584Z,7.75
2023-01-17T06:36:07.225Z,8.32
2023-01-17T06:38:35.978Z,7.18
2023-01-17T06:41:06.276Z,6.57
2023-01-17T06:43:35.922Z,6.43
2023-01-17T06:46:04.714Z,6.07
2023-01-17T06:48:33.718Z,7.10
2023-01-17T06:51:02.297Z,5.85
2023-01-17T06:53:30.709Z,5.50
2023-01-17T06:55:59.561Z,5.38
2023-01-17T06:58:28.301Z,6.32
2023-01-17T07:00:57.217Z,7.50
2023-01-17T07:03:27.860Z,7.50
2023-01-17T07:05:56.584Z,7.30
2023-01-17T07:08:25.257Z,7.30
2023-01-17T07:11:02.979Z,7.90
2023-01-17T07:13:36.446Z,7.35
2023-01-17T07:16:06.462Z,8.07
2023-01-17T07:18:35.958Z,7.75
2023-01-17T07:21:04.921Z,7.75
2023-01-17T07:23:33.674Z,6.60
2023-01-17T07:26:02.339Z,6.35
2023-01-17T07:28:30.957Z,6.95
2023-01-17T07:30:59.553Z,6.40
2023-01-17T07:33:28.277Z,7.43
2023-01-17T07:35:56.967Z,6.85
2023-01-17T07:38:25.769Z,5.35
2023-01-17T07:41:00.772Z,9.10
2023-01-17T07:43:29.364Z,5.70
2023-01-17T07:45:58.507Z,5.32
2023-01-17T07:48:27.853Z,5.60
2023-01-17T07:50:58.561Z,5.18
2023-01-17T07:53:29.627Z,5.07
2023-01-17T07:56:05.977Z,4.93
2023-01-17T07:58:35.950Z,4.45
2023-01-17T08:01:09.055Z,4.63
2023-01-17T08:03:40.586Z,4.80
2023-01-17T08:06:21.741Z,4.97
2023-01-17T08:08:50.443Z,4.88
2023-01-17T08:11:21.583Z,5.07
2023-01-17T08:13:50.717Z,5.10
2023-01-17T08:16:19.270Z,4.47
2023-01-17T08:18:48.002Z,5.00
2023-01-17T08:21:17.889Z,5.63
2023-01-17T08:23:51.088Z,6.07
2023-01-17T08:26:24.281Z,6.70
2023-01-17T08:28:58.259Z,6.90
2023-01-17T08:31:28.389Z,7.53
2023-01-17T08:33:58.365Z,7.75
2023-01-17T08:36:28.338Z,8.18
2023-01-17T08:38:57.101Z,6.78
2023-01-17T08:41:28.504Z,7.20
2023-01-17T08:43:58.064Z,5.65
2023-01-17T08:46:26.579Z,6.53
2023-01-17T08:48:59.501Z,6.53
2023-01-17T08:51:29.064Z,7.45
2023-01-17T08:53:58.966Z,5.85
2023-01-17T08:56:28.018Z,6.05
2023-01-17T08:58:59.297Z,6.00
2023-01-17T09:01:29.950Z,5.75
2023-01-17T09:03:58.710Z,5.60
2023-01-17T09:06:27.441Z,4.28
2023-01-17T09:08:56.198Z,4.60
2023-01-17T09:11:24.953Z,4.07
2023-01-17T09:13:53.679Z,4.15
2023-01-17T09:16:22.678Z,4.15
2023-01-17T09:18:55.941Z,5.53
2023-01-17T09:21:25.801Z,3.65
2023-01-17T09:23:55.192Z,4.65
2023-01-17T09:26:29.346Z,4.88
2023-01-17T09:28:59.279Z,7.00
2023-01-17T09:31:28.265Z,7.40
2023-01-17T09:33:58.482Z,6.50
2023-01-17T09:36:29.651Z,6.10
2023-01-17T09:38:59.719Z,6.85
2023-01-17T09:41:35.719Z,6.95
2023-01-17T09:44:14.761Z,7.90
2023-01-17T09:46:47.180Z,7.45
2023-01-17T09:49:34.320Z,6.90
2023-01-17T09:52:03.427Z,6.57
2023-01-17T09:54:38.647Z,7.00
2023-01-17T09:57:18.383Z,6.95
2023-01-17T10:00:17.117Z,5.57
2023-01-17T10:03:22.845Z,7.18
2023-01-17T10:06:16.114Z,7.30
2023-01-17T10:08:49.132Z,6.68
2023-01-17T10:11:37.261Z,6.60
2023-01-17T10:14:35.389Z,7.50
2023-01-17T10:17:22.100Z,7.03
2023-01-17T10:20:12.059Z,7.82
2023-01-17T10:23:13.201Z,6.75
2023-01-17T10:25:43.734Z,7.05
2023-01-17T10:28:31.774Z,6.43
2023-01-17T10:31:11.389Z,6.20
2023-01-17T10:33:57.829Z,17.55
2023-01-17T10:36:28.739Z,27.38
2023-01-17T10:39:02.642Z,23.98
2023-01-17T10:41:39.750Z,47.40
2023-01-17T10:44:35.785Z,36.70
2023-01-17T10:47:21.666Z,24.27
2023-01-17T10:49:53.762Z,19.70
2023-01-17T10:52:45.980Z,32.47
2023-01-17T10:55:14.880Z,33.83
2023-01-17T10:57:49.068Z,15.27
2023-01-17T11:00:30.916Z,9.65
2023-01-17T11:03:01.243Z,8.20
2023-01-17T11:05:34.559Z,8.85
2023-01-17T11:08:09.386Z,8.52
2023-01-17T11:10:54.902Z,7.88
2023-01-17T11:13:35.092Z,7.65
2023-01-17T11:16:21.765Z,8.07
2023-01-17T11:19:09.847Z,7.78
2023-01-17T11:21:40.353Z,7.13
2023-01-17T11:24:19.791Z,8.52
2023-01-17T11:26:50.218Z,7.38
2023-01-17T11:29:39.689Z,7.10
2023-01-17T11:32:35.784Z,7.97
2023-01-17T11:35:17.611Z,7.70
2023-01-17T11:38:00.111Z,7.47
2023-01-17T11:40:38.038Z,8.05
2023-01-17T11:43:19.470Z,7.82
2023-01-17T11:46:06.630Z,8.98
2023-01-17T11:48:38.551Z,7.72
2023-01-17T11:51:24.012Z,8.82
2023-01-17T11:53:55.052Z,9.82
2023-01-17T11:56:37.546Z,10.48
2023-01-17T11:59:22.315Z,9.20
2023-01-17T12:04:50.106Z,9.35
2023-01-17T12:07:29.282Z,11.05
2023-01-17T12:10:10.397Z,9.65
2023-01-17T12:13:24.038Z,7.78
2023-01-17T12:16:32.732Z,9.57
2023-01-17T12:19:17.418Z,9.43
2023-01-17T12:22:23.567Z,8.48
2023-01-17T12:24:59.256Z,9.45
2023-01-17T12:27:42.515Z,7.97
2023-01-17T12:30:31.512Z,11.05
2023-01-17T12:33:22.451Z,8.40
2023-01-17T12:36:00.689Z,9.60
2023-01-17T12:38:49.132Z,10.30
2023-01-17T12:41:29.827Z,10.07
2023-01-17T12:44:01.612Z,7.75
2023-01-17T12:46:45.781Z,10.75
2023-01-17T12:49:38.252Z,9.65
2023-01-17T12:52:17.831Z,9.80
2023-01-17T12:54:51.168Z,12.20
2023-01-17T12:57:41.743Z,22.90
2023-01-17T13:00:26.225Z,17.33
2023-01-17T13:03:25.511Z,26.17
2023-01-17T13:05:56.153Z,40.38
2023-01-17T13:08:24.963Z,58.70
2023-01-17T13:11:07.231Z,15.48
2023-01-17T13:13:36.897Z,44.58
2023-01-17T13:16:21.984Z,117.82
2023-01-17T13:18:52.750Z,103.63
2023-01-17T13:21:33.738Z,85.40
2023-01-17T13:24:08.473Z,67.40
2023-01-17T13:26:52.147Z,16.95
2023-01-17T13:29:57.850Z,21.02
2023-01-17T13:32:57.172Z,14.60
2023-01-17T13:35:42.763Z,14.05
2023-01-17T13:38:23.175Z,13.25
2023-01-17T13:41:10.754Z,12.63
2023-01-17T13:44:03.691Z,13.60
2023-01-17T13:46:52.619Z,13.40
2023-01-17T13:49:43.119Z,10.25
2023-01-17T13:52:21.027Z,19.25
2023-01-17T13:54:55.863Z,12.98
2023-01-17T13:57:29.884Z,18.38
2023-01-17T14:00:27.974Z,19.08
2023-01-17T14:02:57.125Z,13.07
2023-01-17T14:05:31.483Z,17.08
2023-01-17T14:08:19.893Z,16.08
2023-01-17T14:10:55.397Z,17.10
2023-01-17T14:13:32.907Z,16.90
2023-01-17T14:16:03.345Z,21.13
2023-01-17T14:18:40.749Z,22.48
2023-01-17T14:21:29.808Z,26.13
2023-01-17T14:24:04.515Z,26.13
2023-01-17T14:26:38.216Z,17.70
2023-01-17T14:29:48.027Z,24.38
2023-01-17T14:32:23.058Z,24.70
2023-01-17T14:34:53.525Z,21.92
2023-01-17T14:37:34.189Z,22.10
2023-01-17T14:40:03.046Z,19.27
2023-01-17T14:42:34.063Z,19.27
2023-01-17T14:45:09.120Z,21.40
2023-01-17T14:47:40.536Z,17.23
2023-01-17T14:50:15.344Z,18.27
2023-01-17T14:52:45.852Z,13.45
2023-01-17T14:55:20.961Z,17.60
2023-01-17T14:57:57.422Z,17.33
2023-01-17T15:00:29.921Z,13.80
2023-01-17T15:03:00.316Z,16.02
2023-01-17T15:05:31.172Z,16.02
2023-01-17T15:08:02.689Z,11.10
2023-01-17T15:10:33.981Z,14.20
2023-01-17T15:13:12.134Z,15.90
2023-01-17T15:15:44.014Z,18.05
2023-01-17T15:18:15.825Z,25.42
2023-01-17T15:20:51.198Z,19.98
2023-01-17T15:23:25.954Z,17.45
2023-01-17T15:25:54.999Z,16.88
2023-01-17T15:28:24.041Z,14.75
2023-01-17T15:31:10.026Z,16.52
2023-01-17T15:33:42.104Z,14.23
2023-01-17T15:36:33.866Z,14.80
2023-01-17T15:39:17.044Z,18.75
2023-01-17T15:41:45.926Z,13.75
2023-01-17T15:44:48.423Z,14.98
2023-01-17T15:47:34.713Z,13.10
2023-01-17T15:50:41.862Z,13.27
2023-01-17T15:53:30.656Z,10.43
2023-01-17T15:56:01.691Z,10.20
2023-01-17T15:58:31.494Z,12.07
2023-01-17T16:01:02.640Z,11.63
2023-01-17T16:03:32.262Z,13.00
2023-01-17T16:06:03.927Z,13.05
2023-01-17T16:08:41.133Z,11.82
2023-01-17T16:11:12.370Z,11.13
2023-01-17T16:13:43.756Z,10.48
2023-01-17T16:16:15.542Z,9.60
2023-01-17T16:18:45.087Z,11.20
2023-01-17T16:21:20.873Z,9.68
2023-01-17T16:23:50.212Z,10.15
2023-01-17T16:26:22.084Z,10.25
2023-01-17T16:28:51.066Z,9.55
2023-01-17T16:31:19.943Z,9.32
2023-01-17T16:33:51.416Z,6.75
2023-01-17T16:36:22.669Z,8.05
2023-01-17T16:38:52.849Z,7.50
2023-01-17T16:41:22.395Z,5.13
2023-01-17T16:43:59.518Z,9.32
2023-01-17T16:46:28.610Z,33.50
2023-01-17T16:48:57.678Z,34.33
2023-01-17T16:51:26.487Z,37.08
2023-01-17T16:53:57.737Z,11.38
2023-01-17T16:56:26.648Z,9.07
2023-01-17T16:58:55.593Z,10.30
2023-01-17T17:01:25.944Z,10.80
2023-01-17T17:03:54.650Z,9.40
2023-01-17T17:06:23.365Z,11.13
2023-01-17T17:08:52.400Z,8.07
2023-01-17T17:11:24.901Z,10.85
2023-01-17T17:13:53.859Z,14.02
2023-01-17T17:16:35.816Z,11.10
2023-01-17T17:19:07.604Z,9.77
2023-01-17T17:21:38.656Z,10.18
2023-01-17T17:24:07.809Z,11.15
2023-01-17T17:26:37.589Z,15.32
2023-01-17T17:29:08.617Z,10.13
2023-01-17T17:31:48.395Z,12.30
2023-01-17T17:34:20.083Z,13.60
2023-01-17T17:36:48.748Z,18.20
2023-01-17T17:39:17.454Z,15.70
2023-01-17T17:41:46.585Z,16.23
2023-01-17T17:44:15.684Z,15.40
2023-01-17T17:46:45.347Z,14.23
2023-01-17T17:49:14.077Z,12.43
2023-01-17T17:51:42.999Z,10.90
2023-01-17T17:54:13.455Z,11.15
2023-01-17T17:56:48.239Z,21.05
2023-01-17T17:59:21.113Z,12.30
2023-01-17T18:01:50.314Z,11.15
2023-01-17T18:04:19.839Z,9.05
2023-01-17T18:06:48.573Z,10.65
2023-01-17T18:09:17.456Z,9.00
2023-01-17T18:11:46.219Z,8.75
2023-01-17T18:14:16.575Z,9.13
2023-01-17T18:16:45.860Z,8.13
2023-01-17T18:19:22.444Z,7.95
2023-01-17T18:21:53.359Z,6.97
2023-01-17T18:24:24.810Z,7.28
2023-01-17T18:26:57.796Z,6.35
2023-01-17T18:29:28.001Z,10.55
2023-01-17T18:31:57.269Z,8.82
2023-01-17T18:34:30.182Z,9.05
2023-01-17T18:36:59.207Z,13.38
2023-01-17T18:39:32.776Z,9.52
2023-01-17T18:42:01.378Z,8.75
2023-01-17T18:44:30.827Z,12.98
2023-01-17T18:47:05.256Z,6.88
2023-01-17T18:49:34.737Z,7.00
2023-01-17T18:52:03.649Z,7.28
2023-01-17T18:54:32.715Z,8.07
2023-01-17T18:57:01.358Z,5.72
2023-01-17T18:59:29.872Z,6.05
2023-01-17T19:01:59.495Z,5.50
2023-01-17T19:04:29.199Z,5.68
2023-01-17T19:06:58.082Z,4.45
2023-01-17T19:09:26.876Z,5.43
2023-01-17T19:11:55.512Z,6.25
2023-01-17T19:14:24.115Z,5.20
2023-01-17T19:16:53.040Z,5.22
2023-01-17T19:19:21.883Z,6.72
2023-01-17T19:21:53.331Z,6.93
2023-01-17T19:24:22.081Z,7.25
2023-01-17T19:26:54.742Z,6.60
2023-01-17T19:29:23.403Z,6.82
2023-01-17T19:31:53.477Z,7.20
2023-01-17T19:34:22.177Z,6.95
2023-01-17T19:36:53.816Z,8.18
2023-01-17T19:39:26.217Z,7.57
2023-01-17T19:41:54.696Z,10.75
2023-01-17T19:44:23.493Z,9.75
2023-01-17T19:46:51.920Z,9.23
2023-01-17T19:49:25.242Z,9.85
2023-01-17T19:51:53.929Z,8.90
2023-01-17T19:54:23.809Z,8.07
2023-01-17T19:56:52.325Z,11.18
2023-01-17T19:59:20.939Z,11.10
2023-01-17T20:01:50.214Z,9.65
2023-01-17T20:04:19.436Z,8.20
2023-01-17T20:06:48.109Z,9.10
2023-01-17T20:09:16.896Z,8.35
2023-01-17T20:11:46.179Z,8.73
2023-01-17T20:14:16.005Z,10.82
2023-01-17T20:16:48.063Z,9.30
2023-01-17T20:19:17.276Z,7.25
2023-01-17T20:21:45.762Z,8.38
2023-01-17T20:24:14.836Z,6.93
2023-01-17T20:26:44.644Z,7.40
2023-01-17T20:29:15.947Z,8.13
2023-01-17T20:31:45.851Z,7.47
2023-01-17T20:34:16.857Z,6.47
2023-01-17T20:36:46.170Z,6.97
2023-01-17T20:39:15.817Z,7.28
2023-01-17T20:41:46.806Z,7.45
2023-01-17T20:44:16.662Z,6.30
2023-01-17T20:46:46.057Z,5.68
2023-01-17T20:49:19.675Z,6.18
2023-01-17T20:51:48.982Z,6.97
2023-01-17T20:54:19.216Z,5.43
2023-01-17T20:56:48.688Z,5.38
2023-01-17T20:59:22.888Z,5.75
2023-01-17T21:01:52.422Z,5.43
2023-01-17T21:04:26.600Z,4.80
2023-01-17T21:06:56.017Z,5.22
2023-01-17T21:09:24.902Z,4.40
2023-01-17T21:11:54.997Z,5.65
2023-01-17T21:14:23.755Z,8.90
2023-01-17T21:16:52.368Z,4.80
2023-01-17T21:19:21.245Z,6.10
2023-01-17T21:21:50.676Z,6.85
2023-01-17T21:24:20.340Z,4.22
2023-01-17T21:26:52.060Z,6.28
2023-01-17T21:29:21.041Z,5.15
2023-01-17T21:31:49.802Z,4.45
2023-01-17T21:34:18.447Z,5.20
2023-01-17T21:36:47.016Z,5.20
2023-01-17T21:39:19.237Z,5.30
2023-01-17T21:41:51.195Z,5.50
2023-01-17T21:44:22.964Z,5.95
2023-01-17T21:46:56.467Z,6.80
2023-01-17T21:49:25.659Z,6.50
2023-01-17T21:51:54.323Z,6.20
2023-01-17T21:54:46.380Z,13.50
2023-01-17T21:57:39.149Z,7.97
2023-01-17T22:00:11.236Z,8.50
2023-01-17T22:02:40.595Z,8.70
2023-01-17T22:05:10.909Z,10.25
2023-01-17T22:07:40.117Z,8.38
2023-01-17T22:10:09.254Z,9.38
2023-01-17T22:12:37.758Z,11.88
2023-01-17T22:15:07.421Z,9.80
2023-01-17T22:17:39.033Z,7.90
2023-01-17T22:20:09.596Z,10.05
2023-01-17T22:22:38.438Z,8.95
2023-01-17T22:25:07.461Z,9.55
2023-01-17T22:27:36.123Z,8.20
2023-01-17T22:30:05.267Z,7.85
2023-01-17T22:32:33.928Z,8.85
2023-01-17T22:35:03.944Z,9.48
2023-01-17T22:37:35.217Z,9.52
2023-01-17T22:40:05.756Z,9.20
2023-01-17T22:42:37.602Z,9.65
2023-01-17T22:45:08.476Z,8.23
2023-01-17T22:47:37.996Z,8.50
2023-01-17T22:50:07.447Z,8.10
2023-01-17T22:52:36.643Z,8.93
2023-01-17T22:55:06.237Z,8.13
2023-01-17T22:57:35.178Z,8.45
2023-01-17T23:00:15.186Z,8.20
2023-01-17T23:02:43.911Z,8.95
2023-01-17T23:05:12.704Z,7.63
2023-01-17T23:07:47.219Z,7.00
2023-01-17T23:10:35.966Z,7.47
2023-01-17T23:13:04.554Z,6.97
2023-01-17T23:15:51.681Z,9.10
2023-01-17T23:18:43.318Z,7.88
2023-01-17T23:21:13.266Z,7.25
2023-01-17T23:23:44.511Z,7.28
2023-01-17T23:26:13.035Z,8.05
2023-01-17T23:28:41.897Z,7.30
2023-01-17T23:31:13.275Z,7.63
2023-01-17T23:33:42.178Z,7.70
2023-01-17T23:36:10.819Z,7.40
2023-01-17T23:38:44.460Z,7.60
2023-01-17T23:41:31.167Z,7.43
2023-01-17T23:44:00.154Z,7.30
2023-01-17T23:46:30.770Z,7.65
2023-01-17T23:48:59.775Z,8.00
2023-01-17T23:51:30.121Z,7.90
2023-01-17T23:54:06.025Z,8.25
2023-01-17T23:56:34.703Z,7.90
2023-01-17T23:59:05.136Z,7.55
